Time;durP1;ratioP1;P1;durP2;ratioP2;P2;SDS_P1;SDS_P2;PMS_P1;PMS_P2;Temp;Humidity;BMP_temperature;BMP_pressure;BME280_temperature;BME280_humidity;BME280_pressure;Samples;Min_cycle;Max_cycle;Signal;HPM_P1;HPM_P2
2022/07/23 00:00:35;;;;;;;5.82;4.97;;;;;;;25.66;53.64;98592.97;5048145;27;102630;-75
2022/07/23 00:03:06;;;;;;;6.25;4.93;;;;;;;25.69;53.52;98581.75;5051276;27;103745;-75
2022/07/23 00:05:35;;;;;;;5.38;4.88;;;;;;;25.62;52.95;98570.13;5044927;27;103811;-75
2022/07/23 00:08:05;;;;;;;4.85;4.40;;;;;;;25.55;52.93;98561.16;5048092;27;103275;-75
2022/07/23 00:10:37;;;;;;;4.60;4.20;;;;;;;25.58;52.93;98571.56;5047257;27;102585;-72
2022/07/23 00:13:06;;;;;;;6.60;4.38;;;;;;;25.49;53.07;98564.69;5048671;27;102716;-72
2022/07/23 00:15:34;;;;;;;4.78;4.30;;;;;;;25.54;52.97;98567.63;5044594;27;104257;-72
2022/07/23 00:18:02;;;;;;;5.57;5.07;;;;;;;25.57;52.79;98559.06;5046221;27;103151;-72
2022/07/23 00:20:30;;;;;;;4.82;4.40;;;;;;;25.63;52.86;98560.13;5048034;27;102854;-72
2022/07/23 00:22:58;;;;;;;4.80;4.40;;;;;;;25.51;53.27;98553.69;5051299;27;103950;-72
2022/07/23 00:25:28;;;;;;;4.80;4.40;;;;;;;25.46;53.12;98554.25;5046490;27;104048;-72
2022/07/23 00:27:58;;;;;;;4.72;4.32;;;;;;;25.53;53.16;98555.13;5046592;27;103240;-72
2022/07/23 00:30:29;;;;;;;4.78;4.38;;;;;;;25.47;53.17;98555.97;5052704;27;102644;-72
2022/07/23 00:32:59;;;;;;;4.93;4.53;;;;;;;25.40;53.97;98554.28;5050927;27;104090;-72
2022/07/23 00:35:30;;;;;;;4.78;4.38;;;;;;;25.37;54.25;98550.13;5050695;27;104389;-72
2022/07/23 00:38:02;;;;;;;4.90;4.50;;;;;;;25.30;54.23;98538.47;5047024;27;103214;-72
2022/07/23 00:40:30;;;;;;;4.22;3.92;;;;;;;25.33;54.48;98546.16;5042819;27;102695;-72
2022/07/23 00:42:59;;;;;;;4.30;3.90;;;;;;;25.22;54.58;98542.22;5046883;27;102806;-72
2022/07/23 00:45:31;;;;;;;5.47;4.35;;;;;;;25.19;54.54;98536.38;5045251;27;103346;-72
2022/07/23 00:48:00;;;;;;;5.43;4.47;;;;;;;25.08;55.10;98545.09;5043976;27;103305;-72
2022/07/23 00:50:29;;;;;;;5.47;4.53;;;;;;;25.14;55.81;98536.19;5050373;27;102561;-72
2022/07/23 00:52:57;;;;;;;6.18;4.28;;;;;;;25.06;56.12;98520.16;5048194;27;102715;-72
2022/07/23 00:55:25;;;;;;;5.28;4.32;;;;;;;25.08;55.54;98512.69;5047068;27;104367;-72
2022/07/23 00:57:56;;;;;;;8.15;4.25;;;;;;;25.04;55.71;98531.16;5054943;27;103180;-72
2022/07/23 01:00:25;;;;;;;4.75;4.35;;;;;;;24.82;56.73;98534.25;5043973;27;103125;-72
2022/07/23 01:02:55;;;;;;;4.75;4.35;;;;;;;24.81;56.75;98525.34;5044228;27;103955;-72
2022/07/23 01:05:23;;;;;;;4.55;4.15;;;;;;;24.83;56.74;98525.13;5040543;27;103333;-72
2022/07/23 01:07:54;;;;;;;4.93;4.43;;;;;;;24.84;56.80;98529.50;5040922;27;103277;-72
2022/07/23 01:10:33;;;;;;;4.47;4.05;;;;;;;24.84;56.24;98537.59;5047202;27;103018;-72
2022/07/23 01:13:03;;;;;;;4.85;4.45;;;;;;;24.79;56.55;98535.47;5050808;27;103615;-72
2022/07/23 01:15:32;;;;;;;4.45;4.05;;;;;;;24.87;56.19;98539.91;5042493;27;104448;-72
2022/07/23 01:18:04;;;;;;;4.32;4.03;;;;;;;24.82;56.05;98527.00;5051341;27;102697;-72
2022/07/23 01:20:33;;;;;;;4.93;4.35;;;;;;;24.73;56.65;98526.31;5054685;27;102749;-72
2022/07/23 01:23:02;;;;;;;4.70;4.00;;;;;;;24.77;56.63;98516.78;5058417;27;102710;-72
2022/07/23 01:25:33;;;;;;;4.47;4.07;;;;;;;24.77;56.62;98495.16;5046865;27;105318;-72
2022/07/23 01:28:04;;;;;;;4.20;3.80;;;;;;;24.69;57.21;98502.63;5051171;27;103186;-72
2022/07/23 01:30:34;;;;;;;4.47;4.07;;;;;;;24.59;57.54;98513.81;5058184;27;102685;-72
2022/07/23 01:33:05;;;;;;;3.88;3.58;;;;;;;24.74;57.46;98506.38;5054704;27;104287;-72
2022/07/23 01:35:35;;;;;;;3.53;3.33;;;;;;;24.78;57.21;98506.81;5046848;27;103864;-72
2022/07/23 01:38:07;;;;;;;3.85;3.55;;;;;;;24.80;57.06;98510.16;5051376;27;103355;-72
2022/07/23 01:40:37;;;;;;;3.50;3.20;;;;;;;24.65;57.14;98517.56;5053311;27;102777;-72
2022/07/23 01:43:05;;;;;;;4.10;3.80;;;;;;;24.74;57.15;98500.13;5058111;27;103991;-72
2022/07/23 01:45:35;;;;;;;3.90;3.60;;;;;;;24.68;57.93;98493.69;5046917;27;103243;-72
2022/07/23 01:48:04;;;;;;;4.68;3.50;;;;;;;24.78;57.02;98485.19;5053811;27;103274;-72
2022/07/23 01:50:39;;;;;;;4.38;4.07;;;;;;;24.75;57.69;98502.66;5045621;27;103741;-72
2022/07/23 01:53:23;;;;;;;5.20;3.60;;;;;;;24.72;57.59;98513.88;5047789;27;104047;-72
2022/07/23 01:55:51;;;;;;;3.03;2.83;;;;;;;24.71;58.11;98520.28;5055678;27;104949;-72
2022/07/23 01:58:19;;;;;;;4.25;3.85;;;;;;;24.67;58.58;98527.13;5050763;27;103178;-72
2022/07/23 02:00:47;;;;;;;4.38;4.07;;;;;;;24.26;60.38;98525.53;5047475;27;102640;-71
2022/07/23 02:03:15;;;;;;;6.60;4.60;;;;;;;23.92;61.30;98526.38;5053300;27;104280;-72
2022/07/23 02:05:43;;;;;;;6.28;4.25;;;;;;;23.66;62.01;98517.13;5056114;27;104219;-72
2022/07/23 02:08:11;;;;;;;4.07;3.78;;;;;;;23.87;61.36;98512.69;5047165;27;105155;-72
2022/07/23 02:10:40;;;;;;;3.83;3.53;;;;;;;24.10;60.88;98535.66;5047443;27;102641;-72
2022/07/23 02:13:08;;;;;;;5.18;4.78;;;;;;;23.91;62.45;98551.72;5048815;27;104107;-72
2022/07/23 02:15:36;;;;;;;5.22;3.92;;;;;;;23.88;61.89;98566.44;5045823;27;103251;-72
2022/07/23 02:18:08;;;;;;;4.65;4.15;;;;;;;23.97;61.18;98561.72;5047141;27;102632;-72
2022/07/23 02:20:38;;;;;;;4.43;4.03;;;;;;;24.01;61.12;98560.28;5051673;27;102725;-72
2022/07/23 02:23:08;;;;;;;3.85;3.55;;;;;;;24.05;60.47;98558.84;5054719;27;104081;-72
2022/07/23 02:25:36;;;;;;;3.75;3.45;;;;;;;24.12;60.18;98559.75;5051632;27;103921;-72
2022/07/23 02:28:06;;;;;;;5.05;4.65;;;;;;;24.01;60.65;98560.28;5054210;27;104226;-72
2022/07/23 02:30:34;;;;;;;5.75;4.57;;;;;;;23.80;62.66;98560.38;5051261;27;102747;-72
2022/07/23 02:33:02;;;;;;;3.70;3.40;;;;;;;23.72;62.05;98569.44;5048771;27;104412;-72
2022/07/23 02:35:30;;;;;;;3.17;2.88;;;;;;;23.87;61.28;98572.84;5042532;27;104992;-72
2022/07/23 02:38:01;;;;;;;3.10;2.90;;;;;;;23.89;61.56;98580.78;5048976;27;103263;-73
2022/07/23 02:40:31;;;;;;;3.08;2.88;;;;;;;23.91;61.55;98597.59;5049709;27;104232;-72
2022/07/23 02:42:59;;;;;;;3.00;2.80;;;;;;;23.89;61.53;98610.44;5055214;27;104200;-73
2022/07/23 02:45:28;;;;;;;4.60;4.20;;;;;;;23.62;63.52;98607.53;5050302;27;104266;-72
2022/07/23 02:47:57;;;;;;;4.95;4.55;;;;;;;23.39;63.95;98601.53;5047518;27;103924;-72
2022/07/23 02:50:25;;;;;;;4.95;4.55;;;;;;;23.46;63.92;98610.53;5050929;27;103189;-73
2022/07/23 02:52:55;;;;;;;3.72;3.42;;;;;;;23.51;63.39;98621.56;5052585;27;104405;-72
2022/07/23 02:55:25;;;;;;;4.85;4.45;;;;;;;23.48;63.77;98616.56;5047037;27;103810;-71
2022/07/23 02:57:54;;;;;;;5.32;4.82;;;;;;;23.39;64.47;98623.09;5044758;27;103288;-72
2022/07/23 03:00:24;;;;;;;4.10;3.80;;;;;;;24.06;61.55;98627.97;5044019;27;102696;-72
2022/07/23 03:02:56;;;;;;;4.30;4.00;;;;;;;24.43;60.48;98635.69;5047149;27;103634;-72
2022/07/23 03:05:24;;;;;;;4.60;4.30;;;;;;;24.54;60.30;98634.28;5049140;27;103219;-72
2022/07/23 03:07:52;;;;;;;3.75;3.50;;;;;;;24.69;59.78;98635.81;5046585;27;104707;-72
2022/07/23 03:10:20;;;;;;;3.85;3.55;;;;;;;24.82;59.07;98637.75;5044988;27;102887;-72
2022/07/23 03:12:48;;;;;;;4.47;4.18;;;;;;;24.84;59.28;98635.69;5048215;27;103142;-72
2022/07/23 03:15:17;;;;;;;4.90;4.50;;;;;;;24.84;59.00;98642.97;5041338;27;103798;-72
2022/07/23 03:17:45;;;;;;;4.90;4.50;;;;;;;24.72;59.34;98643.53;5048734;27;103432;-72
2022/07/23 03:20:15;;;;;;;5.10;4.32;;;;;;;24.76;58.82;98639.38;5046892;27;102713;-72
2022/07/23 03:22:43;;;;;;;4.82;4.43;;;;;;;24.90;58.52;98640.28;5050793;27;103964;-72
2022/07/23 03:25:10;;;;;;;6.03;5.10;;;;;;;24.79;58.73;98635.41;5044925;27;104512;-73
2022/07/23 03:27:38;;;;;;;5.25;4.85;;;;;;;24.75;59.15;98632.31;5043599;27;104250;-72
2022/07/23 03:30:08;;;;;;;4.70;4.40;;;;;;;24.96;58.26;98630.50;5045907;27;102846;-72
2022/07/23 03:32:35;;;;;;;5.07;4.68;;;;;;;24.62;59.33;98631.41;5044513;27;103746;-73
2022/07/23 03:35:04;;;;;;;5.50;5.00;;;;;;;24.62;59.38;98629.53;5043589;27;104164;-73
2022/07/23 03:37:36;;;;;;;4.88;4.47;;;;;;;24.72;59.28;98632.72;5050888;27;106322;-73
2022/07/23 03:40:08;;;;;;;4.75;4.35;;;;;;;24.71;59.08;98636.44;5052884;27;103454;-72
2022/07/23 03:42:36;;;;;;;4.35;4.05;;;;;;;24.87;58.82;98629.06;5050937;27;103661;-72
2022/07/23 03:45:06;;;;;;;4.50;4.13;;;;;;;25.01;58.29;98631.56;5043840;27;105279;-72
2022/07/23 03:47:34;;;;;;;5.10;4.60;;;;;;;25.02;57.92;98635.94;5051962;27;103372;-72
2022/07/23 03:50:02;;;;;;;4.70;4.30;;;;;;;25.02;58.15;98627.00;5046441;27;103269;-72
2022/07/23 03:52:29;;;;;;;4.05;3.72;;;;;;;25.03;57.82;98634.09;5059748;27;102795;-72
2022/07/23 03:54:59;;;;;;;4.72;4.28;;;;;;;24.94;58.79;98629.91;5048203;27;104451;-72
2022/07/23 03:57:27;;;;;;;4.88;4.47;;;;;;;24.79;58.62;98622.78;5042381;27;103317;-72
2022/07/23 03:59:54;;;;;;;5.00;4.60;;;;;;;24.75;59.61;98636.88;5041028;27;102697;-72
2022/07/23 04:02:22;;;;;;;4.80;4.40;;;;;;;24.96;58.87;98633.22;5044518;27;104123;-72
2022/07/23 04:04:51;;;;;;;5.15;4.75;;;;;;;24.89;59.25;98627.81;5039412;27;105211;-77
2022/07/23 04:07:18;;;;;;;4.57;4.23;;;;;;;24.82;59.96;98634.22;5044335;27;103343;-75
2022/07/23 04:09:47;;;;;;;4.88;4.47;;;;;;;24.92;59.43;98642.78;5042431;27;102822;-74
2022/07/23 04:12:16;;;;;;;4.35;4.05;;;;;;;25.04;58.26;98646.56;5042826;27;102761;-74
2022/07/23 04:14:44;;;;;;;4.50;4.20;;;;;;;25.11;58.92;98647.41;5045611;27;104026;-74
2022/07/23 04:17:12;;;;;;;4.83;4.43;;;;;;;25.10;59.02;98645.72;5041231;27;103116;-74
2022/07/23 04:19:43;;;;;;;4.90;4.50;;;;;;;24.95;59.85;98642.38;5045204;27;102731;-74
2022/07/23 04:22:13;;;;;;;4.60;4.20;;;;;;;24.70;61.23;98639.34;5044644;27;102820;-74
2022/07/23 04:24:42;;;;;;;4.28;3.97;;;;;;;24.91;60.17;98638.41;5062931;27;106010;-74
2022/07/23 04:27:10;;;;;;;3.80;3.60;;;;;;;25.03;59.43;98647.59;5038024;27;103293;-74
2022/07/23 04:29:40;;;;;;;3.90;3.60;;;;;;;25.11;59.23;98647.41;5049211;27;102745;-74
2022/07/23 04:32:08;;;;;;;4.43;4.05;;;;;;;25.17;59.31;98654.69;5043348;27;104131;-74
2022/07/23 04:34:38;;;;;;;5.15;4.75;;;;;;;25.12;60.01;98649.09;5039669;27;103994;-74
2022/07/23 04:37:06;;;;;;;4.05;3.75;;;;;;;25.19;59.99;98647.22;5063437;27;105632;-74
2022/07/23 04:39:34;;;;;;;5.28;4.88;;;;;;;24.85;61.43;98652.72;5042946;27;103293;-74
2022/07/23 04:42:02;;;;;;;4.80;4.40;;;;;;;25.09;60.42;98652.19;5063226;27;104740;-74
2022/07/23 04:44:31;;;;;;;5.20;4.70;;;;;;;25.14;60.00;98657.81;5043359;27;103070;-74
2022/07/23 04:47:01;;;;;;;5.22;4.82;;;;;;;25.05;59.54;98656.31;5040856;27;103280;-75
2022/07/23 04:49:30;;;;;;;5.47;4.97;;;;;;;25.07;59.12;98646.13;5058442;27;102783;-75
2022/07/23 04:51:58;;;;;;;4.73;4.27;;;;;;;25.25;58.48;98651.81;5048380;27;103734;-76
2022/07/23 04:54:25;;;;;;;4.50;4.20;;;;;;;25.31;58.10;98654.53;5043709;27;103473;-72
2022/07/23 04:56:53;;;;;;;4.73;4.27;;;;;;;25.45;57.66;98644.56;5049989;27;103186;-72
2022/07/23 04:59:23;;;;;;;5.13;4.72;;;;;;;25.46;57.78;98646.19;5050338;27;102959;-71
2022/07/23 05:01:58;;;;;;;5.65;5.15;;;;;;;25.40;58.26;98652.47;5036818;27;104107;-71
2022/07/23 05:04:27;;;;;;;4.95;4.55;;;;;;;25.43;59.33;98652.06;5046030;27;105002;-72
2022/07/23 05:06:59;;;;;;;3.87;3.57;;;;;;;25.54;58.51;98653.34;5051807;27;103168;-72
2022/07/23 05:09:27;;;;;;;3.93;3.63;;;;;;;25.59;58.61;98656.25;5048422;27;102915;-71
2022/07/23 05:11:56;;;;;;;5.10;4.80;;;;;;;25.41;59.74;98654.09;5047878;27;104292;-72
2022/07/23 05:14:24;;;;;;;5.22;4.78;;;;;;;25.51;59.49;98653.75;5057729;27;105998;-72
2022/07/23 05:16:52;;;;;;;5.55;5.05;;;;;;;25.31;60.24;98654.53;5064120;27;103150;-71
2022/07/23 05:19:23;;;;;;;5.65;5.15;;;;;;;25.33;60.15;98670.53;5042243;27;102935;-71
2022/07/23 05:21:54;;;;;;;5.88;5.47;;;;;;;24.98;61.58;98669.00;5051380;27;104699;-71
2022/07/23 05:24:22;;;;;;;4.75;4.35;;;;;;;25.42;60.38;98663.91;5047308;27;103230;-71
2022/07/23 05:26:51;;;;;;;4.50;4.20;;;;;;;25.76;59.84;98668.31;5043038;27;103403;-72
2022/07/23 05:29:20;;;;;;;5.40;5.00;;;;;;;25.71;59.89;98676.25;5046534;27;102993;-72
2022/07/23 05:31:48;;;;;;;5.00;4.60;;;;;;;25.72;58.99;98670.59;5049180;27;103884;-72
2022/07/23 05:34:16;;;;;;;5.95;5.40;;;;;;;25.33;59.24;98679.47;5035757;27;103199;-72
2022/07/23 05:36:48;;;;;;;5.50;5.00;;;;;;;25.53;59.15;98684.94;5036136;27;104974;-72
2022/07/23 05:39:18;;;;;;;5.50;5.10;;;;;;;25.66;58.86;98678.72;5038364;27;102771;-72
2022/07/23 05:41:46;;;;;;;5.35;4.90;;;;;;;25.61;58.11;98681.22;5041069;27;104942;-72
2022/07/23 05:44:14;;;;;;;5.70;5.20;;;;;;;25.68;57.80;98688.31;5035174;27;103993;-72
2022/07/23 05:46:44;;;;;;;6.47;5.78;;;;;;;25.68;57.26;98682.91;5039617;27;104103;-72
2022/07/23 05:49:17;;;;;;;5.10;4.70;;;;;;;25.90;56.39;98692.47;5037958;27;102702;-72
2022/07/23 05:52:05;;;;;;;5.80;5.30;;;;;;;25.91;56.99;98704.09;5040400;27;102927;-72
2022/07/23 05:54:53;;;;;;;5.50;5.00;;;;;;;25.77;57.44;98708.69;5055015;27;104261;-72
2022/07/23 05:57:22;;;;;;;4.57;4.28;;;;;;;26.08;57.09;98702.66;5046491;27;105042;-72
2022/07/23 05:59:53;;;;;;;5.77;4.87;;;;;;;26.27;55.65;98712.69;5036891;27;102994;-72
2022/07/23 06:02:20;;;;;;;5.88;5.38;;;;;;;25.36;58.78;98732.31;5046859;27;102945;-72
2022/07/23 06:04:48;;;;;;;5.87;5.37;;;;;;;25.34;58.70;98740.66;5044556;27;103994;-72
2022/07/23 06:07:29;;;;;;;5.88;5.32;;;;;;;25.41;59.43;98740.63;5040889;27;103501;-73
2022/07/23 06:09:59;;;;;;;6.63;5.80;;;;;;;25.00;60.43;98729.06;5039322;27;103049;-72
2022/07/23 06:12:27;;;;;;;6.93;6.22;;;;;;;24.15;62.67;98721.28;5041221;27;104043;-72
2022/07/23 06:14:55;;;;;;;7.13;6.53;;;;;;;24.05;63.27;98721.59;5046339;27;104438;-73
2022/07/23 06:17:23;;;;;;;6.75;6.15;;;;;;;24.16;62.75;98706.75;5022662;27;104273;-72
2022/07/23 06:19:52;;;;;;;6.50;5.75;;;;;;;24.23;62.94;98707.63;5027820;27;102846;-74
2022/07/23 06:22:23;;;;;;;6.90;6.20;;;;;;;24.03;61.91;98701.22;5044252;27;104205;-73
2022/07/23 06:24:51;;;;;;;6.63;5.97;;;;;;;24.36;61.06;98691.53;5044320;27;103200;-72
2022/07/23 06:27:22;;;;;;;6.57;5.97;;;;;;;24.05;61.10;98693.78;5048542;27;104380;-75
2022/07/23 06:29:53;;;;;;;6.40;5.80;;;;;;;24.83;59.80;98698.03;5041674;27;102695;-73
2022/07/23 06:32:21;;;;;;;6.17;5.43;;;;;;;25.19;58.62;98714.78;5043810;27;102878;-72
2022/07/23 06:34:49;;;;;;;6.10;5.57;;;;;;;24.55;60.12;98716.97;5043731;27;103722;-72
2022/07/23 06:37:17;;;;;;;6.50;5.90;;;;;;;25.12;58.49;98719.34;5061113;27;103173;-72
2022/07/23 06:39:49;;;;;;;6.65;6.05;;;;;;;24.92;59.50;98724.69;5048995;27;102682;-72
2022/07/23 06:42:17;;;;;;;7.87;5.97;;;;;;;24.91;58.65;98733.81;5043765;27;102785;-72
2022/07/23 06:44:47;;;;;;;6.70;6.05;;;;;;;24.94;58.55;98732.56;5049116;27;104270;-71
2022/07/23 06:47:17;;;;;;;6.53;5.93;;;;;;;24.26;60.29;98727.97;5043537;27;104430;-72
2022/07/23 06:49:45;;;;;;;6.90;6.30;;;;;;;24.30;60.37;98732.81;5040050;27;102901;-72
2022/07/23 06:52:13;;;;;;;8.20;6.67;;;;;;;24.25;60.40;98737.13;5050989;27;104366;-72
2022/07/23 06:54:41;;;;;;;6.70;6.10;;;;;;;24.44;59.56;98748.06;5048534;27;103336;-72
2022/07/23 06:57:09;;;;;;;6.07;5.47;;;;;;;24.72;59.15;98756.97;5052171;27;103327;-71
2022/07/23 06:59:40;;;;;;;6.47;5.97;;;;;;;24.74;58.62;98771.09;5047346;27;102906;-72
2022/07/23 07:02:09;;;;;;;6.80;6.13;;;;;;;24.52;59.41;98769.50;5047170;27;103523;-71
2022/07/23 07:04:37;;;;;;;6.82;6.18;;;;;;;24.19;60.97;98776.53;5044562;27;105084;-72
2022/07/23 07:07:05;;;;;;;7.63;6.93;;;;;;;24.24;60.82;98787.56;5045327;27;103182;-72
2022/07/23 07:09:33;;;;;;;7.25;6.60;;;;;;;23.48;63.55;98778.31;5043683;27;102657;-72
2022/07/23 07:12:01;;;;;;;7.10;6.50;;;;;;;23.06;65.53;98773.63;5045701;27;102993;-71
2022/07/23 07:14:29;;;;;;;6.45;5.95;;;;;;;23.54;64.17;98776.72;5045392;27;105344;-71
2022/07/23 07:16:57;;;;;;;7.87;7.17;;;;;;;23.43;65.39;98774.53;5048423;27;103192;-71
2022/07/23 07:19:26;;;;;;;6.70;6.20;;;;;;;23.82;64.64;98784.88;5041597;27;102778;-72
2022/07/23 07:21:54;;;;;;;7.60;6.32;;;;;;;24.15;64.23;98769.84;5031733;27;103919;-71
2022/07/23 07:24:22;;;;;;;7.20;6.50;;;;;;;22.85;67.38;98749.31;5042249;27;103423;-71
2022/07/23 07:26:58;;;;;;;7.10;6.53;;;;;;;23.33;67.16;98737.03;5040965;27;103281;-72
2022/07/23 07:29:26;;;;;;;7.13;6.43;;;;;;;23.02;69.17;98726.53;5041894;27;102999;-77
2022/07/23 07:31:56;;;;;;;7.20;6.60;;;;;;;23.61;68.42;98740.69;5054638;27;102821;-73
2022/07/23 07:34:25;;;;;;;7.80;7.15;;;;;;;23.88;68.93;98778.72;5049216;27;103894;-73
2022/07/23 07:36:53;;;;;;;9.60;8.77;;;;;;;23.46;71.15;98780.38;5042079;27;103170;-73
2022/07/23 07:39:21;;;;;;;8.20;7.40;;;;;;;23.08;74.19;98781.53;5047915;27;103950;-74
2022/07/23 07:41:49;;;;;;;7.32;6.72;;;;;;;24.01;71.24;98778.81;5041194;27;104081;-73
2022/07/23 07:44:18;;;;;;;8.13;7.43;;;;;;;24.34;72.18;98779.97;5052355;27;104393;-73
2022/07/23 07:46:46;;;;;;;7.43;6.80;;;;;;;25.01;70.31;98782.91;5038445;27;103427;-72
2022/07/23 07:49:14;;;;;;;8.20;7.40;;;;;;;25.19;67.71;98796.72;5047708;27;102967;-73
2022/07/23 07:51:44;;;;;;;7.20;6.60;;;;;;;25.10;67.23;98799.78;5035877;27;103643;-73
2022/07/23 07:54:12;;;;;;;8.65;7.00;;;;;;;24.43;71.36;98810.34;5049745;27;104207;-73
2022/07/23 07:56:42;;;;;;;8.05;7.45;;;;;;;24.12;69.81;98821.50;5057745;27;104115;-73
2022/07/23 07:59:11;;;;;;;8.03;7.27;;;;;;;23.60;72.41;98838.81;5048195;27;103291;-73
2022/07/23 08:01:38;;;;;;;7.88;7.28;;;;;;;23.60;71.98;98841.50;5052346;27;103657;-73
2022/07/23 08:04:07;;;;;;;7.20;6.50;;;;;;;24.00;70.43;98836.53;5038041;27;104629;-73
2022/07/23 08:06:35;;;;;;;7.55;6.95;;;;;;;24.08;70.97;98833.72;5038397;27;104197;-73
2022/07/23 08:09:04;;;;;;;8.13;7.43;;;;;;;23.78;71.20;98821.34;5040560;27;102883;-73
2022/07/23 08:11:33;;;;;;;7.30;6.60;;;;;;;24.67;69.12;98815.31;5046796;27;102911;-73
2022/07/23 08:14:05;;;;;;;7.90;7.20;;;;;;;25.18;68.04;98826.69;5045466;27;104487;-73
2022/07/23 08:16:35;;;;;;;6.63;5.95;;;;;;;25.56;65.25;98822.50;5043361;27;103603;-73
2022/07/23 08:19:25;;;;;;;6.23;5.73;;;;;;;25.71;63.38;98833.97;5044040;27;104501;-74
2022/07/23 08:21:53;;;;;;;6.60;6.03;;;;;;;25.28;64.81;98833.38;5046179;27;104144;-72
2022/07/23 08:24:22;;;;;;;6.57;5.97;;;;;;;25.52;63.96;98818.50;5057043;27;104229;-72
2022/07/23 08:26:50;;;;;;;5.20;4.80;;;;;;;25.69;63.54;98819.81;5044217;27;103488;-73
2022/07/23 08:29:18;;;;;;;5.70;5.20;;;;;;;25.91;62.86;98821.31;5049345;27;102757;-73
2022/07/23 08:31:53;;;;;;;6.55;6.03;;;;;;;25.65;63.99;98817.72;5060819;27;104178;-75
2022/07/23 08:34:21;;;;;;;5.90;5.40;;;;;;;26.01;63.31;98814.69;5046515;27;103950;-74
2022/07/23 08:36:49;;;;;;;5.43;5.03;;;;;;;26.54;61.69;98819.09;5044374;27;104372;-74
2022/07/23 08:39:17;;;;;;;6.50;6.00;;;;;;;26.47;61.08;98823.72;5050626;27;102606;-73
2022/07/23 08:41:47;;;;;;;5.63;5.22;;;;;;;27.03;59.29;98813.22;5043996;27;102945;-73
2022/07/23 08:44:18;;;;;;;6.00;5.50;;;;;;;27.99;59.22;98814.03;5047472;27;102884;-73
2022/07/23 08:46:47;;;;;;;6.28;5.78;;;;;;;27.43;54.01;98806.63;5052488;27;103366;-73
2022/07/23 08:49:15;;;;;;;6.03;5.53;;;;;;;27.97;56.59;98800.69;5052495;27;103032;-73
2022/07/23 08:51:44;;;;;;;6.32;5.32;;;;;;;28.82;56.47;98801.88;5042503;27;103503;-74
2022/07/23 08:54:12;;;;;;;5.75;5.25;;;;;;;28.82;53.66;98792.91;5043983;27;103757;-73
2022/07/23 08:56:41;;;;;;;4.80;4.50;;;;;;;29.73;49.93;98804.56;5044094;27;103270;-73
2022/07/23 08:59:13;;;;;;;5.38;4.97;;;;;;;29.89;49.70;98803.97;5049189;27;102969;-74
2022/07/23 09:01:43;;;;;;;5.10;4.60;;;;;;;30.89;48.14;98799.34;5042133;27;102872;-74
2022/07/23 09:04:12;;;;;;;4.50;4.20;;;;;;;31.03;45.77;98798.06;5046145;27;103934;-74
2022/07/23 09:06:40;;;;;;;4.88;4.50;;;;;;;29.89;45.78;98803.97;5045330;27;104151;-74
2022/07/23 09:09:17;;;;;;;5.35;4.85;;;;;;;28.65;48.07;98808.97;5043550;27;105634;-72
2022/07/23 09:11:47;;;;;;;5.70;5.30;;;;;;;27.82;50.76;98802.84;5049165;27;102697;-74
2022/07/23 09:14:36;;;;;;;5.10;4.70;;;;;;;28.10;51.63;98803.31;5050419;27;103141;-73
2022/07/23 09:17:10;;;;;;;4.55;4.25;;;;;;;28.17;50.84;98795.97;5046412;27;103197;-72
2022/07/23 09:19:38;;;;;;;5.35;4.85;;;;;;;28.17;51.08;98801.41;5046681;27;103173;-77
2022/07/23 09:22:20;;;;;;;5.30;4.90;;;;;;;28.42;51.46;98797.84;5046758;27;103579;-78
2022/07/23 09:25:07;;;;;;;5.30;4.80;;;;;;;28.48;51.65;98807.84;5050998;27;103382;-79
2022/07/23 09:27:54;;;;;;;5.30;4.80;;;;;;;29.19;50.43;98794.56;5053405;27;103249;-78
2022/07/23 09:30:27;;;;;;;5.80;5.32;;;;;;;28.46;52.16;98794.47;5051733;27;102734;-77
2022/07/23 09:33:09;;;;;;;5.13;4.72;;;;;;;29.54;50.10;98797.50;5065674;27;102709;-75
2022/07/23 09:35:53;;;;;;;5.82;5.28;;;;;;;29.14;50.37;98797.13;5049816;27;103287;-76
2022/07/23 09:38:24;;;;;;;5.55;4.63;;;;;;;29.62;49.44;98797.19;5047825;27;104115;-74
2022/07/23 09:41:08;;;;;;;4.93;4.43;;;;;;;30.68;45.32;98786.34;5054773;27;102741;-73
2022/07/23 09:43:36;;;;;;;4.95;4.45;;;;;;;30.71;46.31;98788.59;5048908;27;103642;-72
2022/07/23 09:46:23;;;;;;;5.45;4.97;;;;;;;30.60;46.44;98792.16;5046732;27;103651;-73
2022/07/23 09:48:52;;;;;;;5.28;4.88;;;;;;;29.44;48.42;98781.72;5028337;27;103322;-75
2022/07/23 09:51:26;;;;;;;4.53;4.13;;;;;;;29.18;49.08;98792.91;5051270;27;102632;-74
2022/07/23 09:53:54;;;;;;;5.72;5.22;;;;;;;27.57;50.48;98793.81;5045617;27;102675;-74
2022/07/23 09:56:23;;;;;;;5.13;4.65;;;;;;;29.67;46.87;98797.34;5045255;27;103358;-73
2022/07/23 09:59:02;;;;;;;5.35;4.82;;;;;;;28.92;47.60;98788.59;5045466;27;103365;-73
2022/07/23 10:01:32;;;;;;;5.40;5.00;;;;;;;29.81;46.43;98790.69;5046584;27;102744;-73
2022/07/23 10:04:02;;;;;;;5.70;5.20;;;;;;;30.55;45.50;98783.84;5046372;27;103920;-74
2022/07/23 10:06:53;;;;;;;5.20;4.80;;;;;;;30.55;44.72;98794.72;5045903;27;103228;-73
2022/07/23 10:09:43;;;;;;;4.88;4.43;;;;;;;30.63;43.65;98786.19;5004142;27;105696;-74
2022/07/23 10:12:47;;;;;;;5.68;5.18;;;;;;;29.87;46.12;98789.72;5038659;27;102942;-74
2022/07/23 10:15:16;;;;;;;5.38;4.88;;;;;;;29.58;44.43;98787.81;5038173;27;103735;-73
2022/07/23 10:17:45;;;;;;;4.85;4.45;;;;;;;29.12;45.15;98791.94;5044657;27;104209;-75
2022/07/23 10:20:13;;;;;;;5.45;4.95;;;;;;;29.12;46.09;98793.81;5046868;27;104122;-76
2022/07/23 10:22:49;;;;;;;5.70;5.20;;;;;;;29.58;44.63;98787.81;5050384;27;102730;-74
2022/07/23 10:25:25;;;;;;;5.47;4.97;;;;;;;29.75;45.98;98788.84;5039638;27;104043;-73
2022/07/23 10:28:07;;;;;;;5.55;5.05;;;;;;;29.26;46.51;98796.19;5027499;27;103376;-74
2022/07/23 10:30:43;;;;;;;5.47;5.07;;;;;;;29.88;45.86;98794.13;5046721;27;103231;-71
2022/07/23 10:33:26;;;;;;;5.45;5.05;;;;;;;29.33;46.23;98789.84;5049140;27;102788;-77
2022/07/23 10:36:02;;;;;;;5.32;4.88;;;;;;;28.81;47.44;98797.50;5045235;27;104074;-75
2022/07/23 10:38:36;;;;;;;6.05;4.75;;;;;;;28.67;47.53;98790.53;5047130;27;103276;-74
2022/07/23 10:41:05;;;;;;;5.65;5.22;;;;;;;28.67;47.92;98783.22;5046163;27;103316;-75
2022/07/23 10:43:33;;;;;;;5.57;5.07;;;;;;;29.23;47.74;98790.38;5047399;27;102785;-75
2022/07/23 10:46:22;;;;;;;5.85;5.32;;;;;;;28.69;47.25;98786.53;5045926;27;104075;-75
2022/07/23 10:49:26;;;;;;;5.90;5.40;;;;;;;28.54;49.84;98785.22;5053706;27;103394;-74
2022/07/23 10:52:22;;;;;;;6.20;5.60;;;;;;;30.40;48.17;98782.41;5058193;27;103201;-76
2022/07/23 10:54:52;;;;;;;5.55;5.05;;;;;;;30.59;46.96;98785.03;5047807;27;102737;-76
2022/07/23 10:57:21;;;;;;;5.47;5.07;;;;;;;30.50;46.57;98789.16;5046573;27;102736;-79
2022/07/23 11:00:23;;;;;;;5.78;5.28;;;;;;;31.22;44.78;98775.00;5044383;27;104475;-74
2022/07/23 11:02:54;;;;;;;5.90;5.38;;;;;;;30.73;43.74;98781.00;4972887;28;103194;-74
2022/07/23 11:05:26;;;;;;;5.47;5.07;;;;;;;30.18;45.85;98783.16;5035287;27;103066;-74
2022/07/23 11:08:16;;;;;;;128.63;35.38;;;;;;;30.50;45.52;98781.00;5043392;27;102985;-74
2022/07/23 11:10:52;;;;;;;7.82;5.60;;;;;;;30.61;43.80;98774.72;5044929;27;103702;-76
2022/07/23 11:13:38;;;;;;;6.10;5.60;;;;;;;29.29;44.95;98778.56;5051356;27;103394;-75
2022/07/23 11:16:17;;;;;;;5.10;4.70;;;;;;;29.45;45.61;98772.50;5044912;27;103867;-75
2022/07/23 11:19:08;;;;;;;5.05;4.65;;;;;;;29.78;45.60;98772.84;5043078;27;103714;-74
2022/07/23 11:21:50;;;;;;;5.20;4.28;;;;;;;30.38;45.56;98770.91;5050478;27;103235;-75
2022/07/23 11:24:24;;;;;;;5.47;4.97;;;;;;;30.11;43.28;98772.41;5044374;27;103202;-74
2022/07/23 11:26:55;;;;;;;5.60;5.10;;;;;;;28.63;45.67;98759.44;5047723;27;103018;-75
2022/07/23 11:29:46;;;;;;;5.38;4.88;;;;;;;28.62;44.98;98769.44;5043047;27;102663;-77
2022/07/23 11:32:40;;;;;;;5.43;5.03;;;;;;;27.99;45.97;98765.16;5052637;27;104345;-74
2022/07/23 11:35:25;;;;;;;;;;;;;;;28.04;45.88;98774.31;5055247;27;103191;-73
2022/07/23 11:37:58;;;;;;;;;;;;;;;28.89;46.06;98783.59;5046413;27;102714;-73
2022/07/23 11:40:27;;;;;;;;;;;;;;;29.10;44.43;98775.00;5049668;27;104194;-73
2022/07/23 11:42:56;;;;;;;;;;;;;;;29.24;44.68;98775.72;5044795;27;103972;-73
2022/07/23 11:45:24;;;;;;;;;;;;;;;29.08;45.75;98777.09;5046412;27;103140;-73